This is the latest recevied weather packets stored in our database for station/object KA9CBS. If no packets are shown the sender has not sent any weather packets the latest 10 day(s).
| Time | Temp. | Humidity | Pressure | Rain* | Wind** | Luminosity | Snow |
|---|---|---|---|---|---|---|---|
| 1787767512 | 30.56° C | 66% | 1017.3 hPa | 0 mm | - | 620 W/m² | - |
| 1787767210 | 30° C | 72% | 1017.2 hPa | 0 mm | - | 622 W/m² | - |
| 1787766909 | 30° C | 72% | 1017.2 hPa | 0 mm | - | 615 W/m² | - |
| 1787766604 | 30.56° C | 69% | 1017.3 hPa | 0 mm | - | 629 W/m² | - |
| 1787766303 | 30° C | 71% | 1017.4 hPa | 0 mm | - | 658 W/m² | - |
| 1787765997 | 29.44° C | 72% | 1017.3 hPa | 0 mm | - | 690 W/m² | - |
| 1787765694 | 29.44° C | 71% | 1017.4 hPa | 0 mm | - | 683 W/m² | - |
| 1787765389 | 29.44° C | 71% | 1017.2 hPa | 0 mm | - | 638 W/m² | - |
| 1787765088 | 30.56° C | 69% | 1017.6 hPa | 0 mm | - | 647 W/m² | - |
| 1787764784 | 29.44° C | 71% | 1017.5 hPa | 0 mm | - | 635 W/m² | - |
| 1787764479 | 30° C | 71% | 1017.5 hPa | 0 mm | - | 652 W/m² | - |
| 1787764175 | 30.56° C | 68% | 1017.4 hPa | 0 mm | - | 669 W/m² | - |
| 1787763870 | 30° C | 70% | 1017.7 hPa | 0 mm | - | 636 W/m² | - |
| 1787763565 | 30° C | 68% | 1017.7 hPa | 0 mm | - | 608 W/m² | - |
| 1787763261 | 28.89° C | 70% | 1017.6 hPa | 0 mm | - | 625 W/m² | - |
| 1787762960 | 28.89° C | 70% | 1017.5 hPa | 0 mm | - | 625 W/m² | - |
| 1787762660 | 28.89° C | 71% | 1017.6 hPa | 0 mm | - | 619 W/m² | - |
| 1787762358 | 28.89° C | 73% | 1017.6 hPa | 0 mm | - | 598 W/m² | - |
| 1787762057 | 28.89° C | 74% | 1017.5 hPa | 0 mm | - | 600 W/m² | - |
| 1787761752 | 28.89° C | 74% | 1017.4 hPa | 0 mm | - | 611 W/m² | - |
| 1787761447 | 28.33° C | 74% | 1017.3 hPa | 0 mm | - | 587 W/m² | - |
| 1787761141 | 27.78° C | 75% | 1017.4 hPa | 0 mm | - | 584 W/m² | - |
| 1787760841 | 28.33° C | 75% | 1017.4 hPa | 0 mm | - | 597 W/m² | - |
| 1787760539 | 27.78° C | 75% | 1017.5 hPa | 0 mm | - | 578 W/m² | - |
| 1787760233 | 27.22° C | 78% | 1017.3 hPa | 0 mm | - | 558 W/m² | - |
* Rain latest hour (hover to see other rain measurements)
** Current wind speed in m/s (hover to see current wind gust speed)